sensor_id;sensor_type;location;lat;lon;timestamp;P1;durP1;ratioP1;P2;durP2;ratioP2
50483;SDS011;36409;52.168;20.878;2023-11-18T00:00:57;22.30;;;13.97;;
50483;SDS011;36409;52.168;20.878;2023-11-18T00:03:43;24.23;;;14.73;;
50483;SDS011;36409;52.168;20.878;2023-11-18T00:06:14;23.47;;;14.40;;
50483;SDS011;36409;52.168;20.878;2023-11-18T00:08:43;20.07;;;12.83;;
50483;SDS011;36409;52.168;20.878;2023-11-18T00:11:13;24.10;;;14.30;;
50483;SDS011;36409;52.168;20.878;2023-11-18T00:13:42;22.17;;;13.70;;
50483;SDS011;36409;52.168;20.878;2023-11-18T00:16:17;20.25;;;12.70;;
50483;SDS011;36409;52.168;20.878;2023-11-18T00:18:46;20.30;;;13.13;;
50483;SDS011;36409;52.168;20.878;2023-11-18T00:21:15;22.03;;;14.13;;
50483;SDS011;36409;52.168;20.878;2023-11-18T00:23:45;20.77;;;12.70;;
50483;SDS011;36409;52.168;20.878;2023-11-18T00:26:16;19.27;;;12.43;;
50483;SDS011;36409;52.168;20.878;2023-11-18T00:28:47;18.73;;;12.33;;
50483;SDS011;36409;52.168;20.878;2023-11-18T00:31:17;22.77;;;12.90;;
50483;SDS011;36409;52.168;20.878;2023-11-18T00:33:47;20.47;;;13.10;;
50483;SDS011;36409;52.168;20.878;2023-11-18T00:36:16;19.33;;;12.47;;
50483;SDS011;36409;52.168;20.878;2023-11-18T00:38:51;27.30;;;12.43;;
50483;SDS011;36409;52.168;20.878;2023-11-18T00:41:21;24.47;;;12.53;;
50483;SDS011;36409;52.168;20.878;2023-11-18T00:43:50;21.20;;;12.27;;
50483;SDS011;36409;52.168;20.878;2023-11-18T00:46:23;20.60;;;12.30;;
50483;SDS011;36409;52.168;20.878;2023-11-18T00:48:52;18.33;;;10.87;;
50483;SDS011;36409;52.168;20.878;2023-11-18T00:51:21;20.07;;;12.43;;
50483;SDS011;36409;52.168;20.878;2023-11-18T00:53:50;17.67;;;11.63;;
50483;SDS011;36409;52.168;20.878;2023-11-18T00:56:21;19.10;;;11.03;;
50483;SDS011;36409;52.168;20.878;2023-11-18T00:58:50;18.13;;;11.47;;
50483;SDS011;36409;52.168;20.878;2023-11-18T01:01:20;21.03;;;12.37;;
50483;SDS011;36409;52.168;20.878;2023-11-18T01:03:50;22.00;;;11.17;;
50483;SDS011;36409;52.168;20.878;2023-11-18T01:06:19;19.97;;;11.07;;
50483;SDS011;36409;52.168;20.878;2023-11-18T01:08:49;17.83;;;11.03;;
50483;SDS011;36409;52.168;20.878;2023-11-18T01:11:18;17.47;;;10.57;;
50483;SDS011;36409;52.168;20.878;2023-11-18T01:13:50;19.70;;;11.17;;
50483;SDS011;36409;52.168;20.878;2023-11-18T01:16:22;16.93;;;10.40;;
50483;SDS011;36409;52.168;20.878;2023-11-18T01:18:52;17.53;;;11.27;;
50483;SDS011;36409;52.168;20.878;2023-11-18T01:21:22;20.33;;;11.50;;
50483;SDS011;36409;52.168;20.878;2023-11-18T01:23:52;18.57;;;10.97;;
50483;SDS011;36409;52.168;20.878;2023-11-18T01:26:20;17.20;;;11.50;;
50483;SDS011;36409;52.168;20.878;2023-11-18T01:28:50;21.65;;;11.05;;
50483;SDS011;36409;52.168;20.878;2023-11-18T01:31:19;19.35;;;11.65;;
50483;SDS011;36409;52.168;20.878;2023-11-18T01:33:49;17.70;;;11.53;;
50483;SDS011;36409;52.168;20.878;2023-11-18T01:36:18;16.17;;;10.93;;
50483;SDS011;36409;52.168;20.878;2023-11-18T01:38:47;18.63;;;12.00;;
50483;SDS011;36409;52.168;20.878;2023-11-18T01:41:16;17.63;;;10.73;;
50483;SDS011;36409;52.168;20.878;2023-11-18T01:43:47;15.73;;;10.73;;
50483;SDS011;36409;52.168;20.878;2023-11-18T01:46:16;18.33;;;11.97;;
50483;SDS011;36409;52.168;20.878;2023-11-18T01:48:48;18.33;;;11.43;;
50483;SDS011;36409;52.168;20.878;2023-11-18T01:51:19;19.30;;;11.10;;
50483;SDS011;36409;52.168;20.878;2023-11-18T01:53:50;17.67;;;11.67;;
50483;SDS011;36409;52.168;20.878;2023-11-18T01:56:20;19.77;;;11.10;;
50483;SDS011;36409;52.168;20.878;2023-11-18T01:58:52;16.35;;;10.75;;
50483;SDS011;36409;52.168;20.878;2023-11-18T02:01:23;21.93;;;11.73;;
50483;SDS011;36409;52.168;20.878;2023-11-18T02:03:53;21.83;;;12.30;;
50483;SDS011;36409;52.168;20.878;2023-11-18T02:06:22;16.67;;;10.93;;
50483;SDS011;36409;52.168;20.878;2023-11-18T02:08:52;18.03;;;11.33;;
50483;SDS011;36409;52.168;20.878;2023-11-18T02:11:23;15.73;;;10.37;;
50483;SDS011;36409;52.168;20.878;2023-11-18T02:14:00;18.00;;;10.43;;
50483;SDS011;36409;52.168;20.878;2023-11-18T02:16:31;16.30;;;10.83;;
50483;SDS011;36409;52.168;20.878;2023-11-18T02:19:01;16.27;;;10.40;;
50483;SDS011;36409;52.168;20.878;2023-11-18T02:21:37;16.70;;;10.73;;
50483;SDS011;36409;52.168;20.878;2023-11-18T02:24:08;17.47;;;10.87;;
50483;SDS011;36409;52.168;20.878;2023-11-18T02:26:37;19.25;;;10.05;;
50483;SDS011;36409;52.168;20.878;2023-11-18T02:29:06;18.60;;;10.37;;
50483;SDS011;36409;52.168;20.878;2023-11-18T02:31:36;14.57;;;9.77;;
50483;SDS011;36409;52.168;20.878;2023-11-18T02:34:08;17.87;;;10.57;;
50483;SDS011;36409;52.168;20.878;2023-11-18T02:36:44;17.90;;;9.67;;
50483;SDS011;36409;52.168;20.878;2023-11-18T02:39:18;15.07;;;10.07;;
50483;SDS011;36409;52.168;20.878;2023-11-18T02:41:51;21.05;;;9.75;;
50483;SDS011;36409;52.168;20.878;2023-11-18T02:44:24;16.17;;;9.75;;
50483;SDS011;36409;52.168;20.878;2023-11-18T02:46:53;14.63;;;9.40;;
50483;SDS011;36409;52.168;20.878;2023-11-18T02:49:23;15.53;;;9.83;;
50483;SDS011;36409;52.168;20.878;2023-11-18T02:51:52;14.00;;;9.27;;
50483;SDS011;36409;52.168;20.878;2023-11-18T02:54:22;18.37;;;10.20;;
50483;SDS011;36409;52.168;20.878;2023-11-18T02:56:53;12.70;;;9.00;;
50483;SDS011;36409;52.168;20.878;2023-11-18T02:59:22;13.67;;;8.97;;
50483;SDS011;36409;52.168;20.878;2023-11-18T03:01:53;14.05;;;9.60;;
50483;SDS011;36409;52.168;20.878;2023-11-18T03:04:24;16.60;;;9.50;;
50483;SDS011;36409;52.168;20.878;2023-11-18T03:06:53;14.95;;;9.00;;
50483;SDS011;36409;52.168;20.878;2023-11-18T03:09:23;14.90;;;8.37;;
50483;SDS011;36409;52.168;20.878;2023-11-18T03:11:54;13.23;;;8.60;;
50483;SDS011;36409;52.168;20.878;2023-11-18T03:14:24;12.00;;;7.97;;
50483;SDS011;36409;52.168;20.878;2023-11-18T03:16:53;13.70;;;8.50;;
50483;SDS011;36409;52.168;20.878;2023-11-18T03:19:23;11.67;;;8.40;;
50483;SDS011;36409;52.168;20.878;2023-11-18T03:21:52;11.80;;;8.33;;
50483;SDS011;36409;52.168;20.878;2023-11-18T03:24:22;14.77;;;8.50;;
50483;SDS011;36409;52.168;20.878;2023-11-18T03:26:52;12.40;;;7.47;;
50483;SDS011;36409;52.168;20.878;2023-11-18T03:29:21;12.07;;;8.40;;
50483;SDS011;36409;52.168;20.878;2023-11-18T03:31:51;12.13;;;8.43;;
50483;SDS011;36409;52.168;20.878;2023-11-18T03:34:20;13.37;;;8.03;;
50483;SDS011;36409;52.168;20.878;2023-11-18T03:36:51;12.10;;;8.07;;
50483;SDS011;36409;52.168;20.878;2023-11-18T03:39:20;11.87;;;8.20;;
50483;SDS011;36409;52.168;20.878;2023-11-18T03:41:49;14.63;;;7.40;;
50483;SDS011;36409;52.168;20.878;2023-11-18T03:44:18;11.03;;;7.13;;
50483;SDS011;36409;52.168;20.878;2023-11-18T03:46:48;13.20;;;8.07;;
50483;SDS011;36409;52.168;20.878;2023-11-18T03:49:17;13.50;;;7.50;;
50483;SDS011;36409;52.168;20.878;2023-11-18T03:51:48;11.90;;;6.80;;
50483;SDS011;36409;52.168;20.878;2023-11-18T03:54:17;9.60;;;6.53;;
50483;SDS011;36409;52.168;20.878;2023-11-18T03:56:46;11.10;;;7.67;;
50483;SDS011;36409;52.168;20.878;2023-11-18T03:59:16;14.37;;;7.83;;
50483;SDS011;36409;52.168;20.878;2023-11-18T04:01:45;9.47;;;6.67;;
50483;SDS011;36409;52.168;20.878;2023-11-18T04:04:18;10.33;;;6.67;;
50483;SDS011;36409;52.168;20.878;2023-11-18T04:06:49;11.03;;;6.43;;
50483;SDS011;36409;52.168;20.878;2023-11-18T04:09:18;10.27;;;6.20;;
50483;SDS011;36409;52.168;20.878;2023-11-18T04:11:48;8.77;;;5.73;;
50483;SDS011;36409;52.168;20.878;2023-11-18T04:14:17;8.67;;;5.90;;
50483;SDS011;36409;52.168;20.878;2023-11-18T04:16:48;9.53;;;5.60;;
50483;SDS011;36409;52.168;20.878;2023-11-18T04:19:18;8.07;;;5.87;;
50483;SDS011;36409;52.168;20.878;2023-11-18T04:21:48;9.70;;;5.27;;
50483;SDS011;36409;52.168;20.878;2023-11-18T04:24:17;9.70;;;6.17;;
50483;SDS011;36409;52.168;20.878;2023-11-18T04:26:47;8.50;;;5.30;;
50483;SDS011;36409;52.168;20.878;2023-11-18T04:29:17;8.40;;;5.80;;
50483;SDS011;36409;52.168;20.878;2023-11-18T04:31:46;9.73;;;5.93;;
50483;SDS011;36409;52.168;20.878;2023-11-18T04:34:16;7.97;;;5.60;;
50483;SDS011;36409;52.168;20.878;2023-11-18T04:36:45;8.73;;;5.50;;
50483;SDS011;36409;52.168;20.878;2023-11-18T04:39:15;9.63;;;6.17;;
50483;SDS011;36409;52.168;20.878;2023-11-18T04:41:44;7.27;;;4.87;;
50483;SDS011;36409;52.168;20.878;2023-11-18T04:44:16;7.97;;;5.23;;
50483;SDS011;36409;52.168;20.878;2023-11-18T04:46:50;8.83;;;5.27;;
50483;SDS011;36409;52.168;20.878;2023-11-18T04:49:19;8.13;;;5.13;;
50483;SDS011;36409;52.168;20.878;2023-11-18T04:51:49;11.87;;;5.00;;
50483;SDS011;36409;52.168;20.878;2023-11-18T04:54:27;10.23;;;5.70;;
50483;SDS011;36409;52.168;20.878;2023-11-18T04:56:56;9.67;;;5.37;;
50483;SDS011;36409;52.168;20.878;2023-11-18T04:59:25;7.70;;;4.73;;
50483;SDS011;36409;52.168;20.878;2023-11-18T05:01:55;7.07;;;5.07;;
50483;SDS011;36409;52.168;20.878;2023-11-18T05:04:24;13.43;;;5.73;;
50483;SDS011;36409;52.168;20.878;2023-11-18T05:06:53;16.37;;;5.77;;
50483;SDS011;36409;52.168;20.878;2023-11-18T05:09:22;8.27;;;5.80;;
50483;SDS011;36409;52.168;20.878;2023-11-18T05:11:52;9.77;;;6.03;;
50483;SDS011;36409;52.168;20.878;2023-11-18T05:14:21;7.80;;;5.40;;
50483;SDS011;36409;52.168;20.878;2023-11-18T05:16:50;11.83;;;5.77;;
50483;SDS011;36409;52.168;20.878;2023-11-18T05:19:19;10.83;;;5.93;;
50483;SDS011;36409;52.168;20.878;2023-11-18T05:21:49;11.00;;;5.70;;
50483;SDS011;36409;52.168;20.878;2023-11-18T05:24:18;7.53;;;4.97;;
50483;SDS011;36409;52.168;20.878;2023-11-18T05:26:48;8.47;;;5.93;;
50483;SDS011;36409;52.168;20.878;2023-11-18T05:29:18;8.93;;;6.03;;
50483;SDS011;36409;52.168;20.878;2023-11-18T05:31:51;7.70;;;5.10;;
50483;SDS011;36409;52.168;20.878;2023-11-18T05:34:22;7.50;;;5.25;;
50483;SDS011;36409;52.168;20.878;2023-11-18T05:36:52;7.07;;;5.03;;
50483;SDS011;36409;52.168;20.878;2023-11-18T05:39:21;7.40;;;4.93;;
50483;SDS011;36409;52.168;20.878;2023-11-18T05:41:51;8.83;;;5.73;;
50483;SDS011;36409;52.168;20.878;2023-11-18T05:44:23;10.00;;;4.37;;
50483;SDS011;36409;52.168;20.878;2023-11-18T05:47:00;9.47;;;5.10;;
50483;SDS011;36409;52.168;20.878;2023-11-18T05:49:29;8.40;;;5.53;;
50483;SDS011;36409;52.168;20.878;2023-11-18T05:51:58;10.50;;;5.63;;
50483;SDS011;36409;52.168;20.878;2023-11-18T05:54:27;14.10;;;6.90;;
50483;SDS011;36409;52.168;20.878;2023-11-18T05:56:56;11.60;;;6.60;;
50483;SDS011;36409;52.168;20.878;2023-11-18T05:59:27;7.90;;;5.53;;
50483;SDS011;36409;52.168;20.878;2023-11-18T06:01:56;7.00;;;4.60;;
50483;SDS011;36409;52.168;20.878;2023-11-18T06:04:26;8.70;;;5.30;;
50483;SDS011;36409;52.168;20.878;2023-11-18T06:06:56;7.77;;;5.10;;
50483;SDS011;36409;52.168;20.878;2023-11-18T06:09:27;8.73;;;5.20;;
50483;SDS011;36409;52.168;20.878;2023-11-18T06:11:56;7.60;;;5.00;;
50483;SDS011;36409;52.168;20.878;2023-11-18T06:14:26;7.50;;;5.30;;
50483;SDS011;36409;52.168;20.878;2023-11-18T06:16:55;9.57;;;5.43;;
50483;SDS011;36409;52.168;20.878;2023-11-18T06:19:24;7.20;;;4.73;;
50483;SDS011;36409;52.168;20.878;2023-11-18T06:21:53;8.53;;;5.27;;
50483;SDS011;36409;52.168;20.878;2023-11-18T06:24:23;8.53;;;5.60;;
50483;SDS011;36409;52.168;20.878;2023-11-18T06:26:52;11.23;;;5.67;;
50483;SDS011;36409;52.168;20.878;2023-11-18T06:29:21;10.30;;;5.07;;
50483;SDS011;36409;52.168;20.878;2023-11-18T06:31:51;8.43;;;5.10;;
50483;SDS011;36409;52.168;20.878;2023-11-18T06:34:21;8.03;;;4.90;;
50483;SDS011;36409;52.168;20.878;2023-11-18T06:36:50;9.57;;;5.80;;
50483;SDS011;36409;52.168;20.878;2023-11-18T06:39:19;10.07;;;5.60;;
50483;SDS011;36409;52.168;20.878;2023-11-18T06:41:53;8.43;;;5.60;;
50483;SDS011;36409;52.168;20.878;2023-11-18T06:44:22;8.65;;;5.55;;
50483;SDS011;36409;52.168;20.878;2023-11-18T06:46:51;9.47;;;5.43;;
50483;SDS011;36409;52.168;20.878;2023-11-18T06:49:21;8.30;;;5.30;;
50483;SDS011;36409;52.168;20.878;2023-11-18T06:51:53;9.20;;;5.47;;
50483;SDS011;36409;52.168;20.878;2023-11-18T06:54:22;8.40;;;5.37;;
50483;SDS011;36409;52.168;20.878;2023-11-18T06:56:53;10.90;;;5.93;;
50483;SDS011;36409;52.168;20.878;2023-11-18T06:59:22;10.37;;;6.33;;
50483;SDS011;36409;52.168;20.878;2023-11-18T07:01:51;9.20;;;5.80;;
50483;SDS011;36409;52.168;20.878;2023-11-18T07:04:20;9.97;;;5.90;;
50483;SDS011;36409;52.168;20.878;2023-11-18T07:06:49;11.20;;;6.17;;
50483;SDS011;36409;52.168;20.878;2023-11-18T07:09:18;9.80;;;6.10;;
50483;SDS011;36409;52.168;20.878;2023-11-18T07:11:50;10.57;;;6.90;;
50483;SDS011;36409;52.168;20.878;2023-11-18T07:14:19;10.13;;;6.07;;
50483;SDS011;36409;52.168;20.878;2023-11-18T07:16:50;9.33;;;5.90;;
50483;SDS011;36409;52.168;20.878;2023-11-18T07:19:20;8.83;;;5.90;;
50483;SDS011;36409;52.168;20.878;2023-11-18T07:21:50;9.80;;;6.10;;
50483;SDS011;36409;52.168;20.878;2023-11-18T07:24:19;9.60;;;6.27;;
50483;SDS011;36409;52.168;20.878;2023-11-18T07:26:50;9.83;;;6.17;;
50483;SDS011;36409;52.168;20.878;2023-11-18T07:29:19;11.70;;;6.30;;
50483;SDS011;36409;52.168;20.878;2023-11-18T07:31:58;9.93;;;6.03;;
50483;SDS011;36409;52.168;20.878;2023-11-18T07:34:29;10.17;;;6.13;;
50483;SDS011;36409;52.168;20.878;2023-11-18T07:37:00;10.93;;;6.70;;
50483;SDS011;36409;52.168;20.878;2023-11-18T07:39:29;10.30;;;6.10;;
50483;SDS011;36409;52.168;20.878;2023-11-18T07:42:11;12.00;;;6.73;;
50483;SDS011;36409;52.168;20.878;2023-11-18T07:44:40;11.67;;;6.97;;
50483;SDS011;36409;52.168;20.878;2023-11-18T07:47:09;9.90;;;6.73;;
50483;SDS011;36409;52.168;20.878;2023-11-18T07:49:39;16.90;;;8.00;;
50483;SDS011;36409;52.168;20.878;2023-11-18T07:52:09;10.57;;;6.87;;
50483;SDS011;36409;52.168;20.878;2023-11-18T07:54:37;9.77;;;6.50;;
50483;SDS011;36409;52.168;20.878;2023-11-18T07:57:06;12.03;;;7.17;;
50483;SDS011;36409;52.168;20.878;2023-11-18T07:59:39;10.87;;;6.83;;
50483;SDS011;36409;52.168;20.878;2023-11-18T08:02:09;10.40;;;6.97;;
50483;SDS011;36409;52.168;20.878;2023-11-18T08:04:50;11.13;;;7.10;;
50483;SDS011;36409;52.168;20.878;2023-11-18T08:07:19;11.87;;;6.60;;
50483;SDS011;36409;52.168;20.878;2023-11-18T08:09:48;11.53;;;7.30;;
50483;SDS011;36409;52.168;20.878;2023-11-18T08:12:20;12.10;;;7.93;;
50483;SDS011;36409;52.168;20.878;2023-11-18T08:14:50;13.17;;;7.83;;
50483;SDS011;36409;52.168;20.878;2023-11-18T08:17:20;15.97;;;9.57;;
50483;SDS011;36409;52.168;20.878;2023-11-18T08:19:50;12.87;;;8.63;;
50483;SDS011;36409;52.168;20.878;2023-11-18T08:22:19;15.90;;;10.37;;
50483;SDS011;36409;52.168;20.878;2023-11-18T08:24:50;16.17;;;10.00;;
50483;SDS011;36409;52.168;20.878;2023-11-18T08:27:19;16.23;;;10.00;;
50483;SDS011;36409;52.168;20.878;2023-11-18T08:29:55;15.07;;;9.53;;
50483;SDS011;36409;52.168;20.878;2023-11-18T08:33:01;14.97;;;9.80;;
50483;SDS011;36409;52.168;20.878;2023-11-18T08:35:48;12.27;;;8.10;;
50483;SDS011;36409;52.168;20.878;2023-11-18T08:38:32;16.30;;;10.60;;
50483;SDS011;36409;52.168;20.878;2023-11-18T08:41:09;15.07;;;10.30;;
50483;SDS011;36409;52.168;20.878;2023-11-18T08:44:13;14.43;;;8.97;;
50483;SDS011;36409;52.168;20.878;2023-11-18T08:46:52;15.33;;;10.10;;
50483;SDS011;36409;52.168;20.878;2023-11-18T08:49:28;14.30;;;10.37;;
50483;SDS011;36409;52.168;20.878;2023-11-18T08:52:06;16.57;;;10.13;;
50483;SDS011;36409;52.168;20.878;2023-11-18T08:54:57;13.90;;;9.73;;
50483;SDS011;36409;52.168;20.878;2023-11-18T08:57:55;15.20;;;10.75;;
50483;SDS011;36409;52.168;20.878;2023-11-18T09:00:37;18.00;;;11.37;;
50483;SDS011;36409;52.168;20.878;2023-11-18T09:03:31;16.30;;;11.07;;
50483;SDS011;36409;52.168;20.878;2023-11-18T09:06:06;20.85;;;11.15;;
50483;SDS011;36409;52.168;20.878;2023-11-18T09:08:45;17.17;;;11.27;;
50483;SDS011;36409;52.168;20.878;2023-11-18T09:11:20;15.83;;;11.07;;
50483;SDS011;36409;52.168;20.878;2023-11-18T09:13:51;16.17;;;11.07;;
50483;SDS011;36409;52.168;20.878;2023-11-18T09:16:21;14.87;;;10.47;;
50483;SDS011;36409;52.168;20.878;2023-11-18T09:18:51;17.00;;;10.63;;
50483;SDS011;36409;52.168;20.878;2023-11-18T09:21:20;23.83;;;11.17;;
50483;SDS011;36409;52.168;20.878;2023-11-18T09:23:52;19.23;;;11.97;;
50483;SDS011;36409;52.168;20.878;2023-11-18T09:26:23;18.30;;;12.10;;
50483;SDS011;36409;52.168;20.878;2023-11-18T09:29:02;16.70;;;10.60;;
50483;SDS011;36409;52.168;20.878;2023-11-18T09:31:31;17.97;;;11.17;;
50483;SDS011;36409;52.168;20.878;2023-11-18T09:34:03;17.53;;;12.17;;
50483;SDS011;36409;52.168;20.878;2023-11-18T09:36:34;17.90;;;11.87;;
50483;SDS011;36409;52.168;20.878;2023-11-18T09:39:03;17.90;;;11.20;;
50483;SDS011;36409;52.168;20.878;2023-11-18T09:41:32;21.60;;;10.47;;
50483;SDS011;36409;52.168;20.878;2023-11-18T09:44:02;17.20;;;10.80;;
50483;SDS011;36409;52.168;20.878;2023-11-18T09:46:36;16.63;;;10.93;;
50483;SDS011;36409;52.168;20.878;2023-11-18T09:49:20;22.87;;;15.00;;
50483;SDS011;36409;52.168;20.878;2023-11-18T09:52:08;16.63;;;11.03;;
50483;SDS011;36409;52.168;20.878;2023-11-18T09:54:54;14.95;;;10.80;;
50483;SDS011;36409;52.168;20.878;2023-11-18T09:57:31;17.45;;;11.60;;
50483;SDS011;36409;52.168;20.878;2023-11-18T10:00:07;16.93;;;11.17;;
50483;SDS011;36409;52.168;20.878;2023-11-18T10:02:47;21.13;;;13.10;;
50483;SDS011;36409;52.168;20.878;2023-11-18T10:05:20;17.87;;;12.23;;
50483;SDS011;36409;52.168;20.878;2023-11-18T10:07:51;15.87;;;11.13;;
50483;SDS011;36409;52.168;20.878;2023-11-18T10:10:20;19.43;;;13.60;;
50483;SDS011;36409;52.168;20.878;2023-11-18T10:12:52;17.67;;;13.37;;
50483;SDS011;36409;52.168;20.878;2023-11-18T10:15:27;20.50;;;14.40;;
50483;SDS011;36409;52.168;20.878;2023-11-18T10:17:58;20.87;;;15.30;;
50483;SDS011;36409;52.168;20.878;2023-11-18T10:23:22;19.37;;;13.33;;
50483;SDS011;36409;52.168;20.878;2023-11-18T10:25:55;18.13;;;13.67;;
50483;SDS011;36409;52.168;20.878;2023-11-18T10:28:25;15.97;;;10.93;;
50483;SDS011;36409;52.168;20.878;2023-11-18T10:30:56;20.37;;;13.67;;
50483;SDS011;36409;52.168;20.878;2023-11-18T10:33:28;18.87;;;12.07;;
50483;SDS011;36409;52.168;20.878;2023-11-18T10:36:02;15.60;;;9.83;;
50483;SDS011;36409;52.168;20.878;2023-11-18T10:38:40;18.47;;;10.47;;
50483;SDS011;36409;52.168;20.878;2023-11-18T10:41:11;15.95;;;10.05;;
50483;SDS011;36409;52.168;20.878;2023-11-18T10:43:42;15.43;;;10.00;;
50483;SDS011;36409;52.168;20.878;2023-11-18T10:46:16;17.77;;;10.60;;
50483;SDS011;36409;52.168;20.878;2023-11-18T10:48:47;16.73;;;10.57;;
50483;SDS011;36409;52.168;20.878;2023-11-18T10:51:19;37.97;;;19.43;;
50483;SDS011;36409;52.168;20.878;2023-11-18T10:53:54;31.50;;;16.03;;
50483;SDS011;36409;52.168;20.878;2023-11-18T10:56:28;18.70;;;11.00;;
50483;SDS011;36409;52.168;20.878;2023-11-18T10:58:58;25.47;;;11.50;;
50483;SDS011;36409;52.168;20.878;2023-11-18T11:01:34;17.80;;;10.55;;
50483;SDS011;36409;52.168;20.878;2023-11-18T11:04:09;13.03;;;8.70;;
50483;SDS011;36409;52.168;20.878;2023-11-18T11:06:41;15.20;;;10.27;;
50483;SDS011;36409;52.168;20.878;2023-11-18T11:09:14;20.10;;;11.13;;
50483;SDS011;36409;52.168;20.878;2023-11-18T11:11:46;16.90;;;10.43;;
50483;SDS011;36409;52.168;20.878;2023-11-18T11:14:22;23.07;;;11.47;;
50483;SDS011;36409;52.168;20.878;2023-11-18T11:17:05;16.17;;;9.87;;
50483;SDS011;36409;52.168;20.878;2023-11-18T11:19:47;28.73;;;13.30;;
50483;SDS011;36409;52.168;20.878;2023-11-18T11:22:24;20.13;;;12.20;;
50483;SDS011;36409;52.168;20.878;2023-11-18T11:25:12;18.30;;;10.77;;
50483;SDS011;36409;52.168;20.878;2023-11-18T11:27:57;19.50;;;11.70;;
50483;SDS011;36409;52.168;20.878;2023-11-18T11:30:40;179.80;;;76.53;;
50483;SDS011;36409;52.168;20.878;2023-11-18T11:33:14;67.20;;;30.97;;
50483;SDS011;36409;52.168;20.878;2023-11-18T11:35:53;42.47;;;19.27;;
50483;SDS011;36409;52.168;20.878;2023-11-18T11:38:25;28.70;;;14.53;;
50483;SDS011;36409;52.168;20.878;2023-11-18T11:40:56;21.33;;;11.40;;
50483;SDS011;36409;52.168;20.878;2023-11-18T11:43:30;22.00;;;12.58;;
50483;SDS011;36409;52.168;20.878;2023-11-18T11:46:02;16.63;;;10.43;;
50483;SDS011;36409;52.168;20.878;2023-11-18T11:48:38;17.57;;;11.00;;
50483;SDS011;36409;52.168;20.878;2023-11-18T11:51:14;17.93;;;10.47;;
50483;SDS011;36409;52.168;20.878;2023-11-18T11:53:55;18.07;;;11.97;;
50483;SDS011;36409;52.168;20.878;2023-11-18T11:56:40;19.87;;;12.17;;
50483;SDS011;36409;52.168;20.878;2023-11-18T11:59:11;22.23;;;12.60;;
50483;SDS011;36409;52.168;20.878;2023-11-18T12:01:40;19.80;;;12.47;;
50483;SDS011;36409;52.168;20.878;2023-11-18T12:04:15;21.37;;;11.65;;
50483;SDS011;36409;52.168;20.878;2023-11-18T12:09:23;20.63;;;13.27;;
50483;SDS011;36409;52.168;20.878;2023-11-18T12:12:02;24.87;;;14.77;;
50483;SDS011;36409;52.168;20.878;2023-11-18T12:14:49;21.87;;;13.10;;
50483;SDS011;36409;52.168;20.878;2023-11-18T12:17:26;25.77;;;13.90;;
50483;SDS011;36409;52.168;20.878;2023-11-18T12:19:59;40.90;;;23.83;;
50483;SDS011;36409;52.168;20.878;2023-11-18T12:25:32;94.20;;;41.13;;
50483;SDS011;36409;52.168;20.878;2023-11-18T12:28:10;62.80;;;26.47;;
50483;SDS011;36409;52.168;20.878;2023-11-18T12:30:45;34.20;;;17.53;;
50483;SDS011;36409;52.168;20.878;2023-11-18T12:33:26;22.77;;;14.73;;
50483;SDS011;36409;52.168;20.878;2023-11-18T12:42:59;23.10;;;15.67;;
50483;SDS011;36409;52.168;20.878;2023-11-18T12:48:50;28.07;;;15.30;;
50483;SDS011;36409;52.168;20.878;2023-11-18T12:53:52;23.00;;;15.85;;
50483;SDS011;36409;52.168;20.878;2023-11-18T12:56:22;25.80;;;16.07;;
50483;SDS011;36409;52.168;20.878;2023-11-18T12:58:52;23.65;;;15.40;;
50483;SDS011;36409;52.168;20.878;2023-11-18T13:01:22;26.90;;;14.93;;
50483;SDS011;36409;52.168;20.878;2023-11-18T13:03:53;23.50;;;13.30;;
50483;SDS011;36409;52.168;20.878;2023-11-18T13:06:23;20.07;;;12.47;;
50483;SDS011;36409;52.168;20.878;2023-11-18T13:08:56;17.33;;;12.07;;
50483;SDS011;36409;52.168;20.878;2023-11-18T13:11:26;23.70;;;12.80;;
50483;SDS011;36409;52.168;20.878;2023-11-18T13:13:56;21.83;;;12.13;;
50483;SDS011;36409;52.168;20.878;2023-11-18T13:16:26;20.10;;;11.67;;
50483;SDS011;36409;52.168;20.878;2023-11-18T13:18:55;20.77;;;11.83;;
50483;SDS011;36409;52.168;20.878;2023-11-18T13:21:24;19.93;;;12.30;;
50483;SDS011;36409;52.168;20.878;2023-11-18T13:23:57;19.90;;;11.57;;
50483;SDS011;36409;52.168;20.878;2023-11-18T13:26:26;20.67;;;11.03;;
50483;SDS011;36409;52.168;20.878;2023-11-18T13:28:55;23.93;;;12.73;;
50483;SDS011;36409;52.168;20.878;2023-11-18T13:31:25;23.90;;;11.93;;
50483;SDS011;36409;52.168;20.878;2023-11-18T13:33:54;20.70;;;13.07;;
50483;SDS011;36409;52.168;20.878;2023-11-18T13:36:25;18.30;;;11.63;;
50483;SDS011;36409;52.168;20.878;2023-11-18T13:38:55;15.50;;;10.50;;
50483;SDS011;36409;52.168;20.878;2023-11-18T13:41:31;19.13;;;11.37;;
50483;SDS011;36409;52.168;20.878;2023-11-18T13:44:02;18.37;;;11.03;;
50483;SDS011;36409;52.168;20.878;2023-11-18T13:46:32;22.50;;;11.83;;
50483;SDS011;36409;52.168;20.878;2023-11-18T13:51:34;19.63;;;11.77;;
50483;SDS011;36409;52.168;20.878;2023-11-18T13:54:05;21.95;;;13.15;;
50483;SDS011;36409;52.168;20.878;2023-11-18T13:56:34;17.07;;;11.13;;
50483;SDS011;36409;52.168;20.878;2023-11-18T13:59:05;18.37;;;12.10;;
50483;SDS011;36409;52.168;20.878;2023-11-18T14:01:37;19.15;;;12.50;;
50483;SDS011;36409;52.168;20.878;2023-11-18T14:04:07;18.93;;;12.63;;
50483;SDS011;36409;52.168;20.878;2023-11-18T14:06:38;21.70;;;12.70;;
50483;SDS011;36409;52.168;20.878;2023-11-18T14:09:07;20.70;;;11.80;;
50483;SDS011;36409;52.168;20.878;2023-11-18T14:11:40;20.97;;;12.67;;
50483;SDS011;36409;52.168;20.878;2023-11-18T14:14:09;23.57;;;12.67;;
50483;SDS011;36409;52.168;20.878;2023-11-18T14:16:39;22.10;;;13.77;;
50483;SDS011;36409;52.168;20.878;2023-11-18T14:19:08;21.83;;;12.87;;
50483;SDS011;36409;52.168;20.878;2023-11-18T14:21:38;21.17;;;12.13;;
50483;SDS011;36409;52.168;20.878;2023-11-18T14:24:09;19.37;;;12.07;;
50483;SDS011;36409;52.168;20.878;2023-11-18T14:26:39;19.10;;;12.13;;
50483;SDS011;36409;52.168;20.878;2023-11-18T14:29:09;18.37;;;11.90;;
50483;SDS011;36409;52.168;20.878;2023-11-18T14:31:39;21.10;;;12.73;;
50483;SDS011;36409;52.168;20.878;2023-11-18T14:34:08;21.60;;;12.93;;
50483;SDS011;36409;52.168;20.878;2023-11-18T14:36:38;27.37;;;14.70;;
50483;SDS011;36409;52.168;20.878;2023-11-18T14:39:09;27.87;;;14.80;;
50483;SDS011;36409;52.168;20.878;2023-11-18T14:41:40;20.83;;;12.70;;
50483;SDS011;36409;52.168;20.878;2023-11-18T14:44:11;19.60;;;12.90;;
50483;SDS011;36409;52.168;20.878;2023-11-18T14:46:40;19.13;;;12.37;;
50483;SDS011;36409;52.168;20.878;2023-11-18T14:49:14;20.90;;;13.22;;
50483;SDS011;36409;52.168;20.878;2023-11-18T14:51:47;21.47;;;13.80;;
50483;SDS011;36409;52.168;20.878;2023-11-18T14:54:16;22.63;;;13.47;;
50483;SDS011;36409;52.168;20.878;2023-11-18T14:56:46;22.87;;;13.93;;
50483;SDS011;36409;52.168;20.878;2023-11-18T14:59:16;20.43;;;13.73;;
50483;SDS011;36409;52.168;20.878;2023-11-18T15:01:47;20.83;;;13.27;;
50483;SDS011;36409;52.168;20.878;2023-11-18T15:04:17;22.90;;;12.60;;
50483;SDS011;36409;52.168;20.878;2023-11-18T15:06:53;21.23;;;13.07;;